ASA65 PAKT-PAWG
Flight info
| Callsign | ASA65 |
|---|---|
| Flight time | 0h 25m |
| Altitude | 12000 |
| Route | SKOWL2 DOOZI |
| Aircraft | A21N/M-SDE3FGHIRWY/LB1 |
Departure
| Time | 2026-05-07 23:14 |
|---|---|
| Airport | Ketchikan International Airport (PAKT) |
Arrival
| Time | 2026-05-07 23:39 |
|---|---|
| Airport | Wrangell Airport (PAWG) |
| Time | Latitude | Longitude | Altitude | Speed | Heading |
|---|---|---|---|---|---|
| 2026-05-07 23:06 | 55.35530 | -131.70877 | 76 ft | 0 kts | 317° |
| 2026-05-07 23:10 | 55.35534 | -131.70883 | 76 ft | 2 kts | 314° |
| 2026-05-07 23:11 | 55.35517 | -131.70938 | 76 ft | 10 kts | 189° |
| 2026-05-07 23:11 | 55.35429 | -131.70854 | 79 ft | 16 kts | 136° |
| 2026-05-07 23:11 | 55.35343 | -131.70711 | 78 ft | 17 kts | 136° |
| 2026-05-07 23:11 | 55.35258 | -131.70567 | 81 ft | 15 kts | 136° |
| 2026-05-07 23:12 | 55.35174 | -131.70428 | 84 ft | 21 kts | 136° |
| 2026-05-07 23:12 | 55.35060 | -131.70242 | 84 ft | 22 kts | 136° |
| 2026-05-07 23:12 | 55.34976 | -131.70108 | 86 ft | 15 kts | 137° |
| 2026-05-07 23:12 | 55.34887 | -131.70047 | 86 ft | 14 kts | 200° |
| 2026-05-07 23:13 | 55.34819 | -131.70091 | 86 ft | 5 kts | 206° |
| 2026-05-07 23:13 | 55.34826 | -131.70129 | 86 ft | 6 kts | 315° |
| 2026-05-07 23:13 | 55.35008 | -131.70439 | 86 ft | 80 kts | 315° |
| 2026-05-07 23:13 | 55.35607 | -131.71472 | 93 ft | 156 kts | 316° |
| 2026-05-07 23:14 | 55.36406 | -131.72870 | 821 ft | 166 kts | 314° |
| 2026-05-07 23:14 | 55.37147 | -131.74339 | 1791 ft | 167 kts | 312° |
| 2026-05-07 23:14 | 55.37913 | -131.75880 | 2507 ft | 175 kts | 312° |
| 2026-05-07 23:14 | 55.38747 | -131.77531 | 3075 ft | 191 kts | 313° |
| 2026-05-07 23:15 | 55.39674 | -131.79336 | 3650 ft | 208 kts | 313° |
| 2026-05-07 23:15 | 55.40681 | -131.81280 | 4186 ft | 228 kts | 313° |
| 2026-05-07 23:15 | 55.41812 | -131.83455 | 4714 ft | 250 kts | 313° |
| 2026-05-07 23:15 | 55.43018 | -131.85771 | 5420 ft | 265 kts | 313° |
| 2026-05-07 23:16 | 55.44267 | -131.88168 | 6339 ft | 270 kts | 312° |
| 2026-05-07 23:16 | 55.45532 | -131.90598 | 7258 ft | 274 kts | 311° |
| 2026-05-07 23:16 | 55.46809 | -131.93056 | 8181 ft | 277 kts | 311° |
| 2026-05-07 23:16 | 55.48093 | -131.95526 | 9091 ft | 280 kts | 311° |
| 2026-05-07 23:17 | 55.49401 | -131.98050 | 9960 ft | 283 kts | 310° |
| 2026-05-07 23:17 | 55.50727 | -132.00612 | 10680 ft | 291 kts | 310° |
| 2026-05-07 23:17 | 55.52116 | -132.03305 | 11137 ft | 308 kts | 310° |
| 2026-05-07 23:17 | 55.53616 | -132.06198 | 11545 ft | 326 kts | 311° |
| 2026-05-07 23:18 | 55.55410 | -132.08774 | 11887 ft | 343 kts | 324° |
| 2026-05-07 23:18 | 55.57428 | -132.11009 | 11943 ft | 345 kts | 326° |
| 2026-05-07 23:18 | 55.59474 | -132.13216 | 11945 ft | 345 kts | 326° |
| 2026-05-07 23:18 | 55.61512 | -132.15479 | 11944 ft | 345 kts | 325° |
| 2026-05-07 23:19 | 55.63544 | -132.17764 | 11951 ft | 361 kts | 326° |
| 2026-05-07 23:19 | 55.65756 | -132.20134 | 11946 ft | 381 kts | 327° |
| 2026-05-07 23:19 | 55.68031 | -132.22548 | 11942 ft | 385 kts | 327° |
| 2026-05-07 23:19 | 55.70348 | -132.24999 | 11940 ft | 385 kts | 327° |
| 2026-05-07 23:20 | 55.72636 | -132.27426 | 11941 ft | 385 kts | 327° |
| 2026-05-07 23:20 | 55.74912 | -132.29848 | 11943 ft | 385 kts | 327° |
| 2026-05-07 23:20 | 55.77200 | -132.32288 | 11949 ft | 385 kts | 327° |
| 2026-05-07 23:20 | 55.79474 | -132.34718 | 11949 ft | 385 kts | 327° |
| 2026-05-07 23:21 | 55.81763 | -132.37170 | 11946 ft | 384 kts | 327° |
| 2026-05-07 23:21 | 55.84044 | -132.39616 | 11942 ft | 384 kts | 327° |
| 2026-05-07 23:21 | 55.86357 | -132.42105 | 11944 ft | 385 kts | 327° |
| 2026-05-07 23:21 | 55.88614 | -132.44533 | 11941 ft | 385 kts | 327° |
| 2026-05-07 23:22 | 55.90898 | -132.46992 | 11939 ft | 385 kts | 327° |
| 2026-05-07 23:22 | 55.93203 | -132.49481 | 11936 ft | 385 kts | 327° |
| 2026-05-07 23:22 | 55.95491 | -132.51952 | 11943 ft | 385 kts | 327° |
| 2026-05-07 23:22 | 55.97747 | -132.54395 | 11949 ft | 385 kts | 327° |
| 2026-05-07 23:23 | 56.00046 | -132.56886 | 11949 ft | 385 kts | 327° |
| 2026-05-07 23:23 | 56.02334 | -132.59369 | 11957 ft | 385 kts | 327° |
| 2026-05-07 23:23 | 56.04600 | -132.61830 | 11954 ft | 385 kts | 327° |
| 2026-05-07 23:23 | 56.06880 | -132.64313 | 11963 ft | 385 kts | 327° |
| 2026-05-07 23:24 | 56.09163 | -132.66800 | 11963 ft | 385 kts | 326° |
| 2026-05-07 23:24 | 56.11435 | -132.69278 | 11953 ft | 384 kts | 326° |
| 2026-05-07 23:24 | 56.13708 | -132.71762 | 11950 ft | 380 kts | 326° |
| 2026-05-07 23:24 | 56.15913 | -132.74171 | 11823 ft | 366 kts | 326° |
| 2026-05-07 23:25 | 56.18068 | -132.76527 | 11564 ft | 354 kts | 326° |
| 2026-05-07 23:25 | 56.20125 | -132.78786 | 11317 ft | 344 kts | 326° |
| 2026-05-07 23:25 | 56.22121 | -132.80980 | 11062 ft | 334 kts | 326° |
| 2026-05-07 23:25 | 56.24077 | -132.83133 | 10815 ft | 324 kts | 326° |
| 2026-05-07 23:26 | 56.25963 | -132.85211 | 10564 ft | 316 kts | 326° |
| 2026-05-07 23:26 | 56.27796 | -132.87233 | 10311 ft | 308 kts | 326° |
| 2026-05-07 23:26 | 56.29584 | -132.89209 | 10060 ft | 300 kts | 326° |
| 2026-05-07 23:26 | 56.31346 | -132.91157 | 9834 ft | 291 kts | 326° |
| 2026-05-07 23:27 | 56.34674 | -132.94840 | 9478 ft | 274 kts | 327° |
| 2026-05-07 23:27 | 56.36262 | -132.96603 | 9231 ft | 268 kts | 327° |
| 2026-05-07 23:27 | 56.37839 | -132.98355 | 8951 ft | 263 kts | 327° |
| 2026-05-07 23:28 | 56.39374 | -133.00063 | 8695 ft | 258 kts | 327° |
| 2026-05-07 23:28 | 56.40876 | -133.01732 | 8443 ft | 253 kts | 327° |
| 2026-05-07 23:28 | 56.42351 | -133.03372 | 8191 ft | 248 kts | 327° |
| 2026-05-07 23:28 | 56.43810 | -133.04997 | 7940 ft | 244 kts | 327° |
| 2026-05-07 23:29 | 56.45298 | -133.06406 | 7665 ft | 241 kts | 343° |
| 2026-05-07 23:29 | 56.46923 | -133.06638 | 7404 ft | 237 kts | 9° |
| 2026-05-07 23:29 | 56.48454 | -133.05631 | 7152 ft | 232 kts | 33° |
| 2026-05-07 23:29 | 56.49674 | -133.03830 | 6912 ft | 227 kts | 42° |
| 2026-05-07 23:30 | 56.50828 | -133.01894 | 6649 ft | 224 kts | 43° |
| 2026-05-07 23:30 | 56.51959 | -132.99991 | 6395 ft | 222 kts | 43° |
| 2026-05-07 23:30 | 56.53094 | -132.98102 | 6140 ft | 220 kts | 43° |
| 2026-05-07 23:30 | 56.54216 | -132.96251 | 5896 ft | 218 kts | 43° |
| 2026-05-07 23:31 | 56.55330 | -132.94423 | 5677 ft | 217 kts | 43° |
| 2026-05-07 23:31 | 56.56439 | -132.92609 | 5505 ft | 215 kts | 43° |
| 2026-05-07 23:31 | 56.57544 | -132.90801 | 5381 ft | 215 kts | 42° |
| 2026-05-07 23:31 | 56.58658 | -132.88979 | 5250 ft | 214 kts | 42° |
| 2026-05-07 23:32 | 56.59756 | -132.87183 | 5151 ft | 214 kts | 42° |
| 2026-05-07 23:32 | 56.60856 | -132.85384 | 5049 ft | 214 kts | 42° |
| 2026-05-07 23:32 | 56.61919 | -132.83504 | 4938 ft | 213 kts | 54° |
| 2026-05-07 23:32 | 56.62452 | -132.81036 | 4821 ft | 214 kts | 87° |
| 2026-05-07 23:33 | 56.62268 | -132.78369 | 4757 ft | 214 kts | 108° |
| 2026-05-07 23:33 | 56.61657 | -132.75885 | 4763 ft | 216 kts | 118° |
| 2026-05-07 23:33 | 56.60914 | -132.73636 | 4781 ft | 200 kts | 121° |
| 2026-05-07 23:33 | 56.60189 | -132.71584 | 4723 ft | 191 kts | 122° |
| 2026-05-07 23:34 | 56.59480 | -132.69568 | 4489 ft | 188 kts | 121° |
| 2026-05-07 23:34 | 56.58786 | -132.67567 | 4228 ft | 187 kts | 120° |
| 2026-05-07 23:34 | 56.58110 | -132.65593 | 3927 ft | 186 kts | 120° |
| 2026-05-07 23:34 | 56.57429 | -132.63590 | 3643 ft | 185 kts | 120° |
| 2026-05-07 23:35 | 56.56766 | -132.61636 | 3357 ft | 178 kts | 119° |
| 2026-05-07 23:35 | 56.56150 | -132.59817 | 3113 ft | 163 kts | 119° |
| 2026-05-07 23:35 | 56.55577 | -132.58127 | 2846 ft | 151 kts | 119° |
| 2026-05-07 23:35 | 56.55056 | -132.56587 | 2612 ft | 140 kts | 119° |
| 2026-05-07 23:36 | 56.54549 | -132.55087 | 2435 ft | 140 kts | 119° |
| 2026-05-07 23:36 | 56.54036 | -132.53567 | 2217 ft | 140 kts | 119° |
| 2026-05-07 23:36 | 56.53532 | -132.52089 | 2000 ft | 140 kts | 120° |
| 2026-05-07 23:36 | 56.53005 | -132.50594 | 1789 ft | 140 kts | 118° |
| 2026-05-07 23:37 | 56.52543 | -132.49059 | 1590 ft | 139 kts | 115° |
| 2026-05-07 23:37 | 56.52066 | -132.47520 | 1352 ft | 140 kts | 121° |
| 2026-05-07 23:37 | 56.51545 | -132.46060 | 1078 ft | 140 kts | 122° |
| 2026-05-07 23:37 | 56.50980 | -132.44636 | 897 ft | 140 kts | 123° |
| 2026-05-07 23:38 | 56.50482 | -132.43124 | 799 ft | 141 kts | 118° |
| 2026-05-07 23:38 | 56.49989 | -132.41568 | 576 ft | 141 kts | 119° |
| 2026-05-07 23:38 | 56.49480 | -132.40085 | 328 ft | 141 kts | 120° |
| 2026-05-07 23:38 | 56.48974 | -132.38590 | 92 ft | 140 kts | 120° |
| 2026-05-07 23:39 | 56.48490 | -132.37157 | 29 ft | 110 kts | 122° |
| 2026-05-07 23:39 | 56.48246 | -132.36440 | 33 ft | 32 kts | 122° |
| 2026-05-07 23:39 | 56.48199 | -132.36320 | 34 ft | 2 kts | 53° |
| 2026-05-07 23:39 | 56.48221 | -132.36359 | 34 ft | 6 kts | 299° |
| 2026-05-07 23:40 | 56.48283 | -132.36548 | 33 ft | 25 kts | 300° |
| 2026-05-07 23:40 | 56.48375 | -132.36813 | 30 ft | 24 kts | 302° |
| 2026-05-07 23:40 | 56.48465 | -132.37080 | 29 ft | 24 kts | 300° |
| 2026-05-07 23:40 | 56.48514 | -132.37334 | 29 ft | 13 kts | 270° |
| 2026-05-07 23:41 | 56.48513 | -132.37497 | 30 ft | 12 kts | 267° |
| 2026-05-07 23:41 | 56.48510 | -132.37651 | 31 ft | 12 kts | 268° |
| 2026-05-07 23:41 | 56.48509 | -132.37795 | 34 ft | 10 kts | 272° |
| 2026-05-07 23:41 | 56.48527 | -132.37877 | 36 ft | 4 kts | 300° |
| 2026-05-07 23:42 | 56.48539 | -132.37913 | 36 ft | 2 kts | 299° |
| 2026-05-07 23:42 | 56.48540 | -132.37915 | 36 ft | 0 kts | 299° |